Terminal Aerodrome Forecast
Issued by NWS

Home | Current Version | Previous Version | Graphics & Text | Print | Product List | Glossary Off
Versions: 1 2 3 4 5 6 7 8 9 10 11 12 13 14 15 16 17

572
FTUS43 KABR 280205 AAA
TAFMBG
TAF AMD
KMBG 280205Z 2802/2824 04015KT P6SM BKN100
     FM280300 03011KT P6SM OVC015
     FM280700 02011KT P6SM OVC008
     FM280900 02010KT P6SM OVC010
     FM281700 04009KT P6SM OVC020=

USA.gov is the U.S. government's official web portal to all federal, state and local government web resources and services.